Time;durP1;ratioP1;P1;durP2;ratioP2;P2;SDS_P1;SDS_P2;PMS_P1;PMS_P2;Temp;Humidity;BMP_temperature;BMP_pressure;BME280_temperature;BME280_humidity;BME280_pressure;Samples;Min_cycle;Max_cycle;Signal;HPM_P1;HPM_P2
2023/01/03 00:01:40;;;;;;;0.88;0.68;;;8.60;99.90;;;;;;4818298;29;20041;-84
2023/01/03 00:04:06;;;;;;;1.20;0.80;;;8.60;99.90;;;;;;4823211;29;20034;-84
2023/01/03 00:06:45;;;;;;;1.75;0.60;;;8.70;99.90;;;;;;4823153;29;20034;-83
2023/01/03 00:09:14;;;;;;;2.05;0.68;;;8.70;99.90;;;;;;4823042;29;20030;-83
2023/01/03 00:14:29;;;;;;;1.58;0.68;;;8.70;99.90;;;;;;4824156;29;20038;-84
2023/01/03 00:16:58;;;;;;;0.40;0.30;;;8.60;99.90;;;;;;4809427;29;20039;-84
2023/01/03 00:19:27;;;;;;;1.27;0.70;;;8.50;99.90;;;;;;4817668;29;20038;-83
2023/01/03 00:21:53;;;;;;;0.90;0.65;;;8.50;99.90;;;;;;4817832;29;20495;-83
2023/01/03 00:24:19;;;;;;;1.80;0.68;;;8.50;99.90;;;;;;4822754;29;20045;-83
2023/01/03 00:26:45;;;;;;;0.88;0.65;;;8.50;99.90;;;;;;4817263;29;20022;-83
2023/01/03 00:29:11;;;;;;;2.10;0.88;;;8.40;99.90;;;;;;4822609;29;20038;-84
2023/01/03 00:31:39;;;;;;;2.53;0.80;;;8.40;99.90;;;;;;4823442;29;20045;-84
2023/01/03 00:34:05;;;;;;;1.83;0.90;;;8.40;99.90;;;;;;4823386;29;20457;-84
2023/01/03 00:36:31;;;;;;;3.90;0.93;;;8.40;99.90;;;;;;4821809;29;20178;-84
2023/01/03 00:38:57;;;;;;;1.05;0.80;;;8.40;99.90;;;;;;4822324;29;20038;-83
2023/01/03 00:41:23;;;;;;;7.57;0.95;;;8.30;99.90;;;;;;4817812;29;20026;-84
2023/01/03 00:43:49;;;;;;;0.57;0.30;;;8.10;99.90;;;;;;4823197;29;20026;-84
2023/01/03 00:46:18;;;;;;;2.67;0.93;;;7.90;99.90;;;;;;4818758;29;20125;-83
2023/01/03 00:48:45;;;;;;;1.33;0.70;;;7.90;99.90;;;;;;4823165;29;20045;-83
2023/01/03 00:51:24;;;;;;;4.50;0.88;;;7.90;99.90;;;;;;4823197;29;20045;-83
2023/01/03 00:53:54;;;;;;;1.13;0.50;;;7.90;99.90;;;;;;4822017;29;20034;-83
2023/01/03 00:56:27;;;;;;;0.55;0.43;;;7.90;99.90;;;;;;4832944;29;20042;-82
2023/01/03 00:58:54;;;;;;;1.20;0.80;;;7.90;99.90;;;;;;4822030;29;20049;-83
2023/01/03 01:01:24;;;;;;;1.67;0.93;;;7.90;99.90;;;;;;4821371;29;20031;-83
2023/01/03 01:03:58;;;;;;;1.17;0.55;;;7.90;99.90;;;;;;4807506;29;20045;-83
2023/01/03 01:06:33;;;;;;;0.65;0.47;;;7.80;99.90;;;;;;4822738;29;20118;-83
2023/01/03 01:09:02;;;;;;;1.77;0.82;;;7.80;99.90;;;;;;4823198;29;20083;-83
2023/01/03 01:11:29;;;;;;;1.95;0.60;;;7.80;99.90;;;;;;4817439;29;20571;-83
2023/01/03 01:13:55;;;;;;;4.38;1.48;;;7.80;99.90;;;;;;4821882;29;20518;-82
2023/01/03 01:16:25;;;;;;;1.65;1.10;;;7.80;99.90;;;;;;4822279;29;20055;-83
2023/01/03 01:18:52;;;;;;;1.27;0.98;;;7.90;99.90;;;;;;4821985;29;20034;-82
2023/01/03 01:21:30;;;;;;;1.52;0.63;;;7.90;99.90;;;;;;4821884;29;20495;-82
2023/01/03 01:23:58;;;;;;;2.35;0.95;;;7.80;99.90;;;;;;4821752;29;20042;-82
2023/01/03 01:26:25;;;;;;;3.80;1.10;;;7.80;99.90;;;;;;4816074;29;20041;-82
2023/01/03 01:28:52;;;;;;;1.33;0.85;;;7.80;99.90;;;;;;4821482;29;20554;-83
2023/01/03 01:31:22;;;;;;;1.30;0.70;;;7.80;99.90;;;;;;4818318;29;20433;-82
2023/01/03 01:33:49;;;;;;;1.60;1.15;;;7.80;99.90;;;;;;4822868;29;20113;-83
2023/01/03 01:36:27;;;;;;;1.92;0.77;;;7.80;99.90;;;;;;4816261;29;20034;-83
2023/01/03 01:38:57;;;;;;;2.28;1.27;;;7.70;99.90;;;;;;4821290;29;20042;-83
2023/01/03 01:44:56;;;;;;;2.60;0.90;;;7.70;99.90;;;;;;4809808;29;20091;-82
2023/01/03 01:47:50;;;;;;;0.93;0.63;;;7.60;99.90;;;;;;4811502;29;20491;-82
2023/01/03 01:50:36;;;;;;;1.25;0.88;;;7.60;99.90;;;;;;4815464;29;20043;-81
2023/01/03 01:53:13;;;;;;;1.38;0.98;;;7.60;99.90;;;;;;4818190;29;20034;-83
2023/01/03 01:55:55;;;;;;;3.20;1.25;;;7.50;99.90;;;;;;4817015;29;20030;-82
2023/01/03 01:58:25;;;;;;;3.42;1.23;;;7.50;99.90;;;;;;4804001;29;20034;-82
2023/01/03 02:00:51;;;;;;;2.40;0.73;;;7.40;99.90;;;;;;4818430;29;20107;-81
2023/01/03 02:03:17;;;;;;;2.58;1.15;;;7.30;99.90;;;;;;4822329;29;20046;-82
2023/01/03 02:05:49;;;;;;;2.58;1.40;;;7.20;99.90;;;;;;4816943;29;20564;-82
2023/01/03 02:08:15;;;;;;;3.08;1.65;;;7.10;99.90;;;;;;4822500;29;20514;-81
2023/01/03 02:10:49;;;;;;;2.97;1.45;;;7.00;99.90;;;;;;4851015;29;20045;-82
2023/01/03 02:13:30;;;;;;;2.42;1.33;;;7.00;99.90;;;;;;4822105;29;20110;-82
2023/01/03 02:16:14;;;;;;;3.90;1.45;;;7.00;99.90;;;;;;4819887;29;20074;-82
2023/01/03 02:19:09;;;;;;;2.25;1.35;;;6.90;99.90;;;;;;4822323;29;20194;-82
2023/01/03 02:22:35;;;;;;;4.63;1.60;;;6.90;99.90;;;;;;4820897;29;20561;-82
2023/01/03 02:25:32;;;;;;;3.05;1.42;;;6.90;99.90;;;;;;4821462;29;20407;-82
2023/01/03 02:28:34;;;;;;;2.20;1.48;;;6.90;99.90;;;;;;4821810;29;20038;-82
2023/01/03 02:31:34;;;;;;;2.05;1.27;;;6.80;99.90;;;;;;4819960;29;20046;-83
2023/01/03 02:34:33;;;;;;;2.13;1.27;;;6.80;99.90;;;;;;4821349;29;20490;-82
2023/01/03 02:37:24;;;;;;;2.90;1.30;;;6.90;99.90;;;;;;4823892;29;20091;-83
2023/01/03 02:40:12;;;;;;;2.58;1.63;;;6.80;99.90;;;;;;4825282;29;20053;-83
2023/01/03 02:43:17;;;;;;;1.95;1.10;;;6.80;99.90;;;;;;4819740;29;20039;-82
2023/01/03 02:45:57;;;;;;;1.73;1.08;;;6.70;99.90;;;;;;4840418;29;20034;-83
2023/01/03 02:48:47;;;;;;;2.42;1.42;;;6.60;99.90;;;;;;4807318;29;20035;-82
2023/01/03 02:51:30;;;;;;;4.40;2.22;;;6.50;99.90;;;;;;4836096;29;20042;-82
2023/01/03 02:53:59;;;;;;;2.72;1.33;;;6.40;99.90;;;;;;4835084;29;20066;-82
2023/01/03 02:56:41;;;;;;;5.72;2.22;;;6.30;99.90;;;;;;4823879;29;20041;-82
2023/01/03 02:59:18;;;;;;;1.63;1.10;;;6.30;99.90;;;;;;4823426;29;20104;-82
2023/01/03 03:01:44;;;;;;;5.28;2.40;;;6.30;99.90;;;;;;4824293;29;20479;-82
2023/01/03 03:04:14;;;;;;;3.45;1.70;;;6.20;99.90;;;;;;4822795;29;20445;-82
2023/01/03 03:07:07;;;;;;;2.72;1.23;;;6.20;99.90;;;;;;4823741;29;20802;-82
2023/01/03 03:13:11;;;;;;;2.75;1.75;;;6.20;99.90;;;;;;4823182;29;20099;-83
2023/01/03 03:15:03;;;;;;;4.22;1.83;;;6.20;99.90;;;;;;4824144;29;20062;-82
2023/01/03 03:17:30;;;;;;;2.88;1.73;;;6.30;99.90;;;;;;4824539;29;20128;-82
2023/01/03 03:26:04;;;;;;;4.70;1.92;;;6.30;99.90;;;;;;4797376;29;20051;-82
2023/01/03 03:28:37;;;;;;;4.38;1.75;;;6.30;99.90;;;;;;4837125;29;20080;-82
2023/01/03 03:31:48;;;;;;;4.32;2.67;;;6.20;99.90;;;;;;4822132;29;20062;-83
2023/01/03 03:34:22;;;;;;;3.22;2.05;;;6.20;99.90;;;;;;4824280;29;20030;-81
2023/01/03 03:37:10;;;;;;;7.10;2.08;;;6.20;99.90;;;;;;4822541;29;20406;-81
2023/01/03 03:46:04;;;;;;;2.65;1.40;;;6.20;99.90;;;;;;4823630;29;20113;-81
2023/01/03 03:51:35;;;;;;;1.85;1.20;;;6.30;99.90;;;;;;4835548;29;20045;-82
2023/01/03 03:54:10;;;;;;;4.70;1.48;;;6.40;99.90;;;;;;4822762;29;20042;-81
2023/01/03 03:56:37;;;;;;;4.70;2.38;;;6.40;99.90;;;;;;4822813;29;20035;-82
2023/01/03 03:59:07;;;;;;;1.98;1.38;;;6.50;99.90;;;;;;4822602;29;20038;-81
2023/01/03 04:01:37;;;;;;;2.40;1.13;;;6.50;99.90;;;;;;4822714;29;20518;-81
2023/01/03 04:04:09;;;;;;;2.10;0.98;;;6.50;99.90;;;;;;4803128;29;20038;-80
2023/01/03 04:06:44;;;;;;;3.17;1.20;;;6.50;99.90;;;;;;4821964;29;20068;-81
2023/01/03 04:09:10;;;;;;;2.92;1.20;;;6.50;99.90;;;;;;4823365;29;20041;-81
2023/01/03 04:11:36;;;;;;;4.45;1.83;;;6.50;99.90;;;;;;4823723;29;20041;-81
2023/01/03 04:14:01;;;;;;;3.20;0.70;;;6.50;99.90;;;;;;4823178;29;20046;-81
2023/01/03 04:16:27;;;;;;;2.72;1.33;;;6.50;99.90;;;;;;4823503;29;20042;-81
2023/01/03 04:18:53;;;;;;;2.22;1.17;;;6.50;99.90;;;;;;4822755;29;20035;-81
2023/01/03 04:21:19;;;;;;;2.70;1.42;;;6.50;99.90;;;;;;4822149;29;20444;-82
2023/01/03 04:23:44;;;;;;;2.10;1.30;;;6.40;99.90;;;;;;4823155;29;20048;-82
2023/01/03 04:26:10;;;;;;;1.83;1.00;;;6.40;99.90;;;;;;4823349;29;20392;-81
2023/01/03 04:28:35;;;;;;;4.38;1.92;;;6.40;99.90;;;;;;4823444;29;20037;-81
2023/01/03 04:31:01;;;;;;;3.13;1.67;;;6.30;99.90;;;;;;4822664;29;20403;-81
2023/01/03 04:33:27;;;;;;;1.63;1.30;;;6.30;99.90;;;;;;4823410;29;20042;-82
2023/01/03 04:35:52;;;;;;;2.85;1.42;;;6.30;99.90;;;;;;4822846;29;20046;-81
2023/01/03 04:38:18;;;;;;;7.65;2.28;;;6.30;99.90;;;;;;4823028;29;20095;-81
2023/01/03 04:40:44;;;;;;;4.30;1.90;;;6.30;99.90;;;;;;4822909;29;20031;-82
2023/01/03 04:45:54;;;;;;;2.10;1.17;;;6.30;99.90;;;;;;4822463;29;20091;-81
2023/01/03 04:48:20;;;;;;;3.60;2.17;;;6.30;99.90;;;;;;4823095;29;20042;-82
2023/01/03 04:50:54;;;;;;;1.98;1.30;;;6.30;99.90;;;;;;4821058;29;20499;-82
2023/01/03 04:53:22;;;;;;;2.13;1.08;;;6.30;99.90;;;;;;4805126;29;20042;-82
2023/01/03 04:55:50;;;;;;;3.60;1.90;;;6.20;99.90;;;;;;4830782;29;20458;-82
2023/01/03 04:58:17;;;;;;;2.53;1.55;;;6.30;99.90;;;;;;4804170;29;20114;-82
2023/01/03 05:00:42;;;;;;;1.42;1.25;;;6.30;99.90;;;;;;4818776;29;20099;-82
2023/01/03 05:03:08;;;;;;;2.50;1.20;;;6.30;99.90;;;;;;4822821;29;20432;-82
2023/01/03 05:05:36;;;;;;;3.38;1.95;;;6.30;99.90;;;;;;4822181;29;20071;-82
2023/01/03 05:08:11;;;;;;;2.45;1.45;;;6.30;99.90;;;;;;4821684;29;20077;-82
2023/01/03 05:10:37;;;;;;;2.83;1.50;;;6.30;99.90;;;;;;4822727;29;20042;-82
2023/01/03 05:13:04;;;;;;;2.72;1.60;;;6.20;99.90;;;;;;4821643;29;20026;-82
2023/01/03 05:15:36;;;;;;;6.90;1.95;;;6.30;99.90;;;;;;4822261;29;20087;-82
2023/01/03 05:18:03;;;;;;;2.13;1.23;;;6.30;99.90;;;;;;4836212;29;20043;-82
2023/01/03 05:26:07;;;;;;;3.53;1.88;;;6.30;99.90;;;;;;4820445;29;20103;-81
2023/01/03 05:28:34;;;;;;;4.82;1.85;;;6.10;99.90;;;;;;4821197;29;20072;-82
2023/01/03 05:31:00;;;;;;;4.38;1.90;;;5.80;99.90;;;;;;4820431;29;20054;-83
2023/01/03 05:33:26;;;;;;;8.77;3.25;;;5.80;99.90;;;;;;4822585;29;20469;-82
2023/01/03 05:35:52;;;;;;;9.52;3.75;;;5.90;99.90;;;;;;4819901;29;20246;-81
2023/01/03 05:38:18;;;;;;;2.53;1.52;;;6.00;99.90;;;;;;4820431;29;20030;-76
2023/01/03 05:40:44;;;;;;;3.30;1.45;;;6.00;99.90;;;;;;4820429;29;20034;-73
2023/01/03 05:43:10;;;;;;;3.60;1.75;;;6.00;99.90;;;;;;4821169;29;20042;-75
2023/01/03 05:45:39;;;;;;;4.70;1.35;;;6.10;99.90;;;;;;4819528;29;20037;-76
2023/01/03 05:48:07;;;;;;;3.25;1.33;;;6.10;99.90;;;;;;4820542;29;20032;-73
2023/01/03 05:50:33;;;;;;;3.53;1.73;;;6.10;99.90;;;;;;4816767;29;20092;-74
2023/01/03 05:52:59;;;;;;;1.63;1.10;;;6.20;99.90;;;;;;4819880;29;20113;-75
2023/01/03 05:55:25;;;;;;;7.93;1.70;;;6.20;99.90;;;;;;4821670;29;20110;-76
2023/01/03 05:57:52;;;;;;;3.58;1.77;;;6.20;99.90;;;;;;4821564;29;20671;-74
2023/01/03 06:00:18;;;;;;;2.45;1.67;;;6.20;99.90;;;;;;4820082;29;20042;-75
2023/01/03 06:02:44;;;;;;;3.17;1.52;;;6.30;99.90;;;;;;4821841;29;20111;-74
2023/01/03 06:05:10;;;;;;;5.57;1.80;;;6.30;99.90;;;;;;4819900;29;20062;-74
2023/01/03 06:07:36;;;;;;;6.97;1.48;;;6.30;99.90;;;;;;4821761;29;20229;-74
2023/01/03 06:10:04;;;;;;;3.15;1.58;;;6.30;99.90;;;;;;4821128;29;20087;-73
2023/01/03 06:12:30;;;;;;;3.90;1.55;;;6.30;99.90;;;;;;4821888;29;20103;-74
2023/01/03 06:14:56;;;;;;;2.92;2.00;;;6.20;99.90;;;;;;4819380;29;20454;-75
2023/01/03 06:20:07;;;;;;;3.15;1.73;;;6.30;99.90;;;;;;4813752;29;20035;-75
2023/01/03 06:22:33;;;;;;;3.67;2.03;;;6.30;99.90;;;;;;4815635;29;20455;-74
2023/01/03 06:24:59;;;;;;;3.20;1.98;;;6.30;99.90;;;;;;4821070;29;20113;-75
2023/01/03 06:27:24;;;;;;;8.70;2.63;;;6.20;99.90;;;;;;4816688;29;20034;-75
2023/01/03 06:29:55;;;;;;;5.10;1.90;;;6.20;99.90;;;;;;4813495;29;20129;-74
2023/01/03 06:32:21;;;;;;;2.95;2.20;;;6.20;99.90;;;;;;4812924;29;20034;-75
2023/01/03 06:34:47;;;;;;;6.13;2.80;;;6.20;99.90;;;;;;4821302;29;20128;-75
2023/01/03 06:37:12;;;;;;;4.90;2.67;;;6.10;99.90;;;;;;4820677;29;20039;-75
2023/01/03 06:39:38;;;;;;;6.93;2.83;;;6.10;99.90;;;;;;4821193;29;20042;-75
2023/01/03 06:53:13;;;;;;;10.07;2.50;;;5.90;99.90;;;;;;4821346;29;20038;-75
2023/01/03 06:55:41;;;;;;;10.55;2.35;;;5.80;99.90;;;;;;4817008;29;20030;-75
2023/01/03 06:58:06;;;;;;;5.65;2.20;;;5.80;99.90;;;;;;4820765;29;20113;-75
2023/01/03 07:00:35;;;;;;;2.95;1.85;;;5.80;99.90;;;;;;4821017;29;20126;-76
2023/01/03 07:03:01;;;;;;;3.40;1.70;;;5.70;99.90;;;;;;4819616;29;20062;-77
2023/01/03 07:05:27;;;;;;;6.60;1.98;;;5.70;99.90;;;;;;4818074;29;20068;-76
2023/01/03 07:07:52;;;;;;;3.80;1.92;;;5.80;99.90;;;;;;4820561;29;20030;-75
2023/01/03 07:10:18;;;;;;;5.47;2.72;;;5.80;99.90;;;;;;4820697;29;20041;-76
2023/01/03 07:15:28;;;;;;;2.53;1.38;;;5.90;99.90;;;;;;4821577;29;20392;-78
2023/01/03 07:17:54;;;;;;;2.90;1.88;;;6.00;99.90;;;;;;4840993;23;20076;-78
2023/01/03 07:20:20;;;;;;;2.10;1.33;;;5.90;99.90;;;;;;4839997;29;20395;-72
2023/01/03 07:22:46;;;;;;;3.65;2.17;;;6.00;99.90;;;;;;4837023;29;20042;-69
2023/01/03 07:25:12;;;;;;;4.00;2.38;;;6.00;99.90;;;;;;4840727;29;20034;-71
2023/01/03 07:27:37;;;;;;;4.45;2.25;;;6.00;99.90;;;;;;4852757;29;20054;-71
2023/01/03 07:30:04;;;;;;;9.45;2.15;;;6.00;99.90;;;;;;4840674;29;20033;-72
2023/01/03 07:32:29;;;;;;;4.60;2.72;;;6.00;99.90;;;;;;4841844;29;20034;-72
2023/01/03 07:34:55;;;;;;;4.90;2.65;;;6.00;99.90;;;;;;4842351;29;20070;-71
2023/01/03 07:37:21;;;;;;;5.93;2.50;;;6.00;99.90;;;;;;4836338;29;20409;-71
2023/01/03 07:39:46;;;;;;;7.50;4.03;;;5.90;99.90;;;;;;4840174;29;20046;-71
2023/01/03 07:44:56;;;;;;;3.35;2.10;;;5.80;99.90;;;;;;4841728;29;20037;-72
2023/01/03 07:47:22;;;;;;;7.53;2.65;;;5.70;99.90;;;;;;4841830;29;20386;-71
2023/01/03 07:49:48;;;;;;;8.43;3.55;;;5.60;99.90;;;;;;4841566;29;20094;-71
2023/01/03 07:52:13;;;;;;;7.55;2.80;;;5.60;99.90;;;;;;4842098;29;20491;-71
2023/01/03 07:54:39;;;;;;;7.35;3.08;;;5.50;99.90;;;;;;4841155;29;20499;-72
2023/01/03 07:57:05;;;;;;;7.10;3.28;;;5.40;99.90;;;;;;4841059;29;20054;-72
2023/01/03 07:59:30;;;;;;;6.00;2.67;;;5.40;99.90;;;;;;4841983;29;20041;-73
2023/01/03 08:01:56;;;;;;;3.70;2.42;;;5.30;99.90;;;;;;4840278;29;20030;-73
2023/01/03 08:04:22;;;;;;;4.15;2.25;;;5.30;99.90;;;;;;4838777;29;20030;-73
2023/01/03 08:06:47;;;;;;;4.55;2.70;;;5.20;99.90;;;;;;4848706;29;20052;-72
2023/01/03 08:14:42;;;;;;;4.68;2.22;;;5.20;99.90;;;;;;4842104;29;20578;-72
2023/01/03 08:17:07;;;;;;;5.97;2.58;;;5.20;99.90;;;;;;4841035;29;20113;-72
2023/01/03 08:19:33;;;;;;;4.78;2.33;;;5.20;99.90;;;;;;4840798;29;20034;-72
2023/01/03 08:21:59;;;;;;;6.13;3.72;;;5.20;99.90;;;;;;4841656;29;20086;-73
2023/01/03 08:24:24;;;;;;;8.77;3.17;;;5.20;99.90;;;;;;4840840;29;20029;-73
2023/01/03 08:26:50;;;;;;;4.32;2.85;;;5.20;99.90;;;;;;4840575;29;20038;-73
2023/01/03 08:29:16;;;;;;;6.10;3.33;;;5.30;99.90;;;;;;4844957;29;20518;-72
2023/01/03 08:31:53;;;;;;;6.53;3.67;;;5.30;99.90;;;;;;4841201;29;20042;-73
2023/01/03 08:34:19;;;;;;;4.82;2.85;;;5.30;99.90;;;;;;4854515;29;20046;-73
2023/01/03 08:37:02;;;;;;;5.85;2.85;;;5.30;99.90;;;;;;4854683;29;20038;-73
2023/01/03 08:39:36;;;;;;;5.75;2.78;;;5.30;99.90;;;;;;4854749;29;20583;-73
2023/01/03 08:42:06;;;;;;;6.20;2.35;;;5.30;99.90;;;;;;4692017;29;72554;-72
2023/01/03 08:44:32;;;;;;;4.20;2.63;;;5.30;99.90;;;;;;4830399;29;20059;-72
2023/01/03 08:47:01;;;;;;;4.38;2.40;;;5.30;99.90;;;;;;4843807;29;72029;-72
2023/01/03 08:49:28;;;;;;;5.45;3.05;;;5.30;99.90;;;;;;4864751;29;20495;-73
2023/01/03 08:51:53;;;;;;;8.18;3.30;;;5.40;99.90;;;;;;4871145;29;20136;-73
2023/01/03 08:54:19;;;;;;;2.75;2.20;;;5.40;99.90;;;;;;4849814;29;20092;-74
2023/01/03 08:56:45;;;;;;;5.88;2.92;;;5.40;99.90;;;;;;4855343;29;20141;-74
2023/01/03 08:59:10;;;;;;;5.43;3.38;;;5.40;99.90;;;;;;4852977;29;20518;-72
2023/01/03 09:01:36;;;;;;;6.25;2.92;;;5.40;99.90;;;;;;4854245;29;20037;-72
2023/01/03 09:04:04;;;;;;;5.35;2.97;;;5.40;99.90;;;;;;4854080;29;20108;-73
2023/01/03 09:06:30;;;;;;;4.90;2.75;;;5.40;99.90;;;;;;4867415;29;20033;-73
2023/01/03 09:08:56;;;;;;;5.55;2.60;;;5.40;99.90;;;;;;4849878;29;20073;-73
2023/01/03 09:11:22;;;;;;;7.93;3.50;;;5.50;99.90;;;;;;4847469;29;20088;-73
2023/01/03 09:13:47;;;;;;;5.80;2.80;;;5.50;99.90;;;;;;4847424;29;20096;-72
2023/01/03 09:16:15;;;;;;;5.88;2.80;;;5.60;99.90;;;;;;4851407;29;20116;-73
2023/01/03 09:18:41;;;;;;;6.45;2.83;;;5.70;99.90;;;;;;4854892;29;20049;-73
2023/01/03 09:21:07;;;;;;;6.07;3.30;;;5.80;99.90;;;;;;4851408;29;20037;-73
2023/01/03 09:23:35;;;;;;;6.22;2.67;;;5.90;99.90;;;;;;4852773;29;20482;-72
2023/01/03 09:26:01;;;;;;;5.80;2.95;;;6.00;99.90;;;;;;4865546;29;20069;-73
2023/01/03 09:28:27;;;;;;;13.30;4.30;;;6.10;99.90;;;;;;4854995;29;20041;-73
2023/01/03 09:30:53;;;;;;;5.95;3.08;;;6.20;99.90;;;;;;4843156;29;20463;-73
2023/01/03 09:33:18;;;;;;;5.90;3.58;;;6.30;99.90;;;;;;4839940;29;20062;-73
2023/01/03 09:35:44;;;;;;;5.63;3.03;;;6.50;99.90;;;;;;4850871;29;20022;-72
2023/01/03 09:38:10;;;;;;;11.00;3.22;;;6.60;99.90;;;;;;4849929;29;20033;-72
2023/01/03 09:40:42;;;;;;;7.72;3.05;;;6.80;99.90;;;;;;4848467;29;20034;-72
2023/01/03 09:43:18;;;;;;;6.63;3.92;;;6.90;99.90;;;;;;4841876;29;20034;-69
2023/01/03 09:45:52;;;;;;;7.60;3.22;;;7.10;99.90;;;;;;4859355;29;20113;-71
2023/01/03 09:48:26;;;;;;;7.97;3.25;;;7.20;99.90;;;;;;4848919;29;20072;-72
2023/01/03 09:50:52;;;;;;;6.72;2.65;;;7.40;99.90;;;;;;4865218;29;20815;-72
2023/01/03 10:05:45;;;;;;;6.90;2.72;;;10.60;99.90;;;;;;4847340;29;20490;-71
2023/01/03 10:08:47;;;;;;;5.18;2.65;;;10.70;99.90;;;;;;4863534;29;20092;-71
2023/01/03 10:12:04;;;;;;;4.68;2.47;;;10.50;99.90;;;;;;4853472;29;20405;-70
2023/01/03 10:15:15;;;;;;;6.43;1.67;;;11.00;99.90;;;;;;4837107;29;20113;-72
2023/01/03 10:18:23;;;;;;;2.95;1.67;;;12.30;99.90;;;;;;4842415;29;20057;-71
2023/01/03 10:20:55;;;;;;;3.67;1.92;;;12.60;99.90;;;;;;4816318;29;20049;-72
2023/01/03 10:23:21;;;;;;;2.47;1.30;;;12.30;99.90;;;;;;4858713;29;20121;-72
2023/01/03 10:25:48;;;;;;;2.72;1.42;;;13.20;99.90;;;;;;4852013;29;20123;-72
2023/01/03 10:28:36;;;;;;;3.95;1.95;;;12.50;99.90;;;;;;4854183;29;20033;-72
2023/01/03 10:31:51;;;;;;;5.25;1.88;;;11.10;99.90;;;;;;4860696;29;20117;-73
2023/01/03 10:34:16;;;;;;;2.47;1.63;;;12.30;99.90;;;;;;4828719;29;20030;-70
2023/01/03 10:36:42;;;;;;;5.35;1.98;;;13.50;99.90;;;;;;4849251;29;20044;-72
2023/01/03 10:39:10;;;;;;;3.10;1.70;;;12.60;99.90;;;;;;4850524;29;20086;-71
2023/01/03 10:41:43;;;;;;;3.47;1.50;;;12.30;99.90;;;;;;4846352;29;20045;-70
2023/01/03 10:44:29;;;;;;;3.53;1.42;;;12.60;99.90;;;;;;4856377;29;20510;-71
2023/01/03 10:47:08;;;;;;;3.00;1.52;;;12.20;99.90;;;;;;4844764;29;20403;-70
2023/01/03 10:49:33;;;;;;;3.10;1.63;;;12.80;99.90;;;;;;4851109;29;20120;-71
2023/01/03 10:52:17;;;;;;;5.25;1.65;;;12.90;99.90;;;;;;4869806;29;20104;-71
2023/01/03 10:54:42;;;;;;;2.78;1.70;;;13.40;99.90;;;;;;4863255;29;20038;-71
2023/01/03 10:57:44;;;;;;;4.07;1.88;;;13.10;99.90;;;;;;4849588;29;20069;-71
2023/01/03 11:00:36;;;;;;;4.57;1.70;;;12.50;99.90;;;;;;4845406;29;20033;-71
2023/01/03 11:03:10;;;;;;;1.27;0.98;;;12.40;99.90;;;;;;4844938;29;20418;-71
2023/01/03 11:05:38;;;;;;;2.60;1.45;;;12.30;99.90;;;;;;4845465;29;20122;-71
2023/01/03 11:08:14;;;;;;;3.38;1.40;;;12.20;99.90;;;;;;4857230;29;20036;-71
2023/01/03 11:10:58;;;;;;;1.92;1.20;;;13.30;99.90;;;;;;4840332;29;20038;-69
2023/01/03 11:13:39;;;;;;;3.45;1.77;;;13.50;99.90;;;;;;4848226;29;20041;-71
2023/01/03 11:16:18;;;;;;;2.63;1.17;;;13.90;99.90;;;;;;4852958;29;20041;-71
2023/01/03 11:19:00;;;;;;;2.08;1.23;;;13.00;99.90;;;;;;4870953;29;20076;-71
2023/01/03 11:22:16;;;;;;;6.68;1.85;;;13.60;99.90;;;;;;4850296;29;20034;-68
2023/01/03 11:25:22;;;;;;;5.13;1.88;;;13.10;99.90;;;;;;4771927;29;20035;-71
2023/01/03 11:28:06;;;;;;;1.90;1.25;;;14.00;99.90;;;;;;4777327;30;20175;-72
2023/01/03 11:31:01;;;;;;;2.65;1.23;;;14.40;99.90;;;;;;4818173;29;20048;-73
2023/01/03 11:33:58;;;;;;;2.78;1.30;;;13.70;99.90;;;;;;4850999;29;20033;-74
2023/01/03 11:37:15;;;;;;;7.35;1.40;;;13.90;99.90;;;;;;4863235;29;20034;-73
2023/01/03 11:40:05;;;;;;;4.22;1.40;;;14.10;99.90;;;;;;4783517;29;20035;-76
2023/01/03 11:42:59;;;;;;;6.07;1.00;;;14.30;99.90;;;;;;4843009;29;20034;-73
2023/01/03 11:45:42;;;;;;;2.83;1.60;;;15.50;99.90;;;;;;4846239;29;20045;-72
2023/01/03 11:48:39;;;;;;;2.10;1.23;;;15.60;99.90;;;;;;4866377;29;20490;-73
2023/01/03 11:51:25;;;;;;;2.20;1.13;;;15.90;99.90;;;;;;4852429;29;20110;-68
2023/01/03 11:54:02;;;;;;;2.70;1.38;;;15.00;99.90;;;;;;4857571;29;20049;-71
2023/01/03 11:56:45;;;;;;;1.60;0.80;;;16.70;99.50;;;;;;4849149;29;20040;-71
2023/01/03 11:59:45;;;;;;;3.42;1.00;;;15.60;99.90;;;;;;4859098;29;20113;-73
2023/01/03 12:02:58;;;;;;;1.63;1.00;;;14.50;99.90;;;;;;4851312;29;20553;-73
2023/01/03 12:06:28;;;;;;;1.65;1.10;;;14.10;99.90;;;;;;4853685;29;20516;-73
2023/01/03 12:09:26;;;;;;;2.28;1.52;;;14.00;99.90;;;;;;4784712;29;20048;-71
2023/01/03 12:12:27;;;;;;;5.20;1.42;;;13.00;99.90;;;;;;4848867;29;20037;-72
2023/01/03 12:15:21;;;;;;;3.53;1.60;;;12.60;99.90;;;;;;4837943;29;20070;-73
2023/01/03 12:18:00;;;;;;;2.35;1.38;;;12.40;99.90;;;;;;4865694;29;20049;-72
2023/01/03 12:20:39;;;;;;;2.75;1.63;;;11.70;99.90;;;;;;4860060;29;20042;-71
2023/01/03 12:23:21;;;;;;;7.03;1.63;;;11.60;99.90;;;;;;4864432;29;20029;-72
2023/01/03 12:25:53;;;;;;;2.67;1.38;;;12.40;99.90;;;;;;4861691;29;20041;-72
2023/01/03 12:28:31;;;;;;;3.53;1.52;;;12.40;99.90;;;;;;4859537;29;20040;-72
2023/01/03 12:31:08;;;;;;;5.07;1.40;;;12.60;99.90;;;;;;4866421;29;20053;-72
2023/01/03 12:33:43;;;;;;;6.68;1.30;;;11.70;99.90;;;;;;4868323;29;20078;-73
2023/01/03 12:36:24;;;;;;;9.95;1.23;;;11.00;99.90;;;;;;4856085;29;20033;-72
2023/01/03 12:39:35;;;;;;;3.08;1.33;;;10.80;99.90;;;;;;4842064;29;20106;-71
2023/01/03 12:42:18;;;;;;;3.67;2.22;;;10.80;99.90;;;;;;4855931;29;20074;-71
2023/01/03 12:44:47;;;;;;;2.85;1.10;;;11.20;99.90;;;;;;4858279;29;20042;-71
2023/01/03 12:47:52;;;;;;;2.38;1.10;;;11.60;99.90;;;;;;4872051;29;20037;-71
2023/01/03 12:50:40;;;;;;;3.20;1.00;;;12.00;99.90;;;;;;4860693;29;20091;-71
2023/01/03 12:53:24;;;;;;;2.00;0.90;;;12.40;99.90;;;;;;4856219;29;20040;-71
2023/01/03 12:56:42;;;;;;;2.55;1.20;;;11.90;99.90;;;;;;4851571;29;20074;-71
2023/01/03 13:00:01;;;;;;;1.58;0.90;;;11.50;99.90;;;;;;4851447;29;20053;-72
2023/01/03 13:02:58;;;;;;;1.77;0.88;;;11.60;99.90;;;;;;4768180;29;20462;-71
2023/01/03 13:05:42;;;;;;;1.83;1.13;;;11.50;99.90;;;;;;4777168;30;20043;-72
2023/01/03 13:08:20;;;;;;;2.92;1.42;;;11.70;99.90;;;;;;4832769;29;20042;-73
2023/01/03 13:10:52;;;;;;;1.50;0.95;;;11.90;99.90;;;;;;4844527;29;20186;-73
2023/01/03 13:13:20;;;;;;;1.35;0.77;;;11.90;99.90;;;;;;4857293;29;20033;-73
2023/01/03 13:15:47;;;;;;;1.98;0.95;;;11.90;99.90;;;;;;4865560;29;20443;-73
2023/01/03 13:18:21;;;;;;;2.10;1.38;;;11.60;99.90;;;;;;4864528;23;20049;-68
2023/01/03 13:20:54;;;;;;;1.48;0.80;;;11.30;99.90;;;;;;4851740;29;20045;-67
2023/01/03 13:23:58;;;;;;;1.77;0.68;;;11.40;99.90;;;;;;4867414;29;20034;-68
2023/01/03 13:26:27;;;;;;;7.18;1.27;;;12.10;99.90;;;;;;4797874;29;20039;-68
2023/01/03 13:29:43;;;;;;;2.97;1.40;;;12.30;99.90;;;;;;4796086;29;20126;-69
2023/01/03 13:32:19;;;;;;;4.07;1.08;;;12.30;99.90;;;;;;4786374;29;20085;-69
2023/01/03 13:34:57;;;;;;;1.08;0.52;;;12.40;99.90;;;;;;4790056;29;20050;-69
2023/01/03 13:37:47;;;;;;;2.53;0.77;;;12.70;99.90;;;;;;4765929;30;20060;-68
2023/01/03 13:40:31;;;;;;;2.20;1.00;;;13.30;99.90;;;;;;4792381;29;20058;-68
2023/01/03 13:43:13;;;;;;;3.78;1.05;;;12.80;99.90;;;;;;4783808;29;20441;-69
2023/01/03 13:45:39;;;;;;;5.95;0.90;;;13.40;99.90;;;;;;4794056;29;20449;-69
2023/01/03 13:48:31;;;;;;;2.22;1.23;;;13.20;99.90;;;;;;4795992;29;20047;-68
2023/01/03 13:51:05;;;;;;;0.68;0.60;;;12.70;99.90;;;;;;4793951;29;20054;-69
2023/01/03 13:53:38;;;;;;;1.27;0.65;;;12.80;99.90;;;;;;4796201;29;20038;-69
2023/01/03 13:56:41;;;;;;;1.45;0.88;;;12.60;99.90;;;;;;4794894;29;20039;-69
2023/01/03 13:59:41;;;;;;;1.55;0.57;;;12.30;99.90;;;;;;4812086;29;20538;-69
2023/01/03 14:02:07;;;;;;;6.55;1.25;;;11.90;99.90;;;;;;4839862;29;20045;-69
2023/01/03 14:04:58;;;;;;;1.73;0.70;;;11.80;99.90;;;;;;4824265;29;20038;-69
2023/01/03 14:07:41;;;;;;;2.38;1.55;;;11.60;99.90;;;;;;4804211;29;20515;-69
2023/01/03 14:10:36;;;;;;;1.35;0.63;;;11.60;99.90;;;;;;4831582;29;20041;-69
2023/01/03 14:13:45;;;;;;;1.95;0.90;;;11.40;99.90;;;;;;4805776;29;20380;-69
2023/01/03 14:16:40;;;;;;;0.57;0.30;;;11.30;99.90;;;;;;4832022;29;20384;-69
2023/01/03 14:19:29;;;;;;;2.40;0.55;;;11.30;99.90;;;;;;4827524;29;20034;-72
2023/01/03 14:22:18;;;;;;;1.05;0.60;;;11.60;99.90;;;;;;4836111;29;20076;-70
2023/01/03 14:24:56;;;;;;;8.55;0.82;;;12.20;99.90;;;;;;4823985;29;20034;-70
2023/01/03 14:27:39;;;;;;;0.77;0.57;;;12.70;99.90;;;;;;4818698;29;20144;-69
2023/01/03 14:30:27;;;;;;;1.63;0.63;;;12.60;99.90;;;;;;4830883;29;20067;-69
2023/01/03 14:32:52;;;;;;;1.15;0.82;;;12.80;99.90;;;;;;4830135;29;20038;-69
2023/01/03 14:35:41;;;;;;;5.55;1.05;;;13.20;99.90;;;;;;4831357;29;20033;-70
2023/01/03 14:38:30;;;;;;;2.67;0.77;;;13.00;99.90;;;;;;4820684;29;20050;-70
2023/01/03 14:40:57;;;;;;;1.98;0.75;;;12.80;99.90;;;;;;4833166;29;20402;-70
2023/01/03 14:43:32;;;;;;;1.95;0.75;;;13.00;99.90;;;;;;4828883;29;20128;-69
2023/01/03 14:46:05;;;;;;;0.60;0.40;;;13.10;99.90;;;;;;4834411;29;20041;-70